Gage, Kentucky
Current Conditions -  °F | °C
As of 10:53 PM on Sunday 21 Dec 2014 (Local Time) from KPAH Reporting Station
Overcast Overcast  
Wind Chill: 33°   Ceiling: 10000
Heat Index: 38°   Visibility: 10mi
Dew Point: 31°   Wind: 7mph
Humidity: 76%   Direction: 110°ESE
Pressure: 29.97"   Gusts: NA
Location:  37.1019°N, 88.9715°W
Report Text: KPAH 220453Z AUTO 11006KT 10SM FEW075 OVC100 03/M01 A2997 RMK AO2 SLP151 T00331006
Loading
Personal Weather Stations






























Interactive Weather Map New forecast layout! Learn more

10-Day Weather Forecast

Advertisements
Track Severe Weather on mobile